Date,TemperatureHighF,TemperatureAvgF,TemperatureLowF,DewpointHighF,DewpointAvgF,DewpointLowF,HumidityHigh,HumidityAvg,HumidityLow,PressureMaxIn,PressureMinIn,WindSpeedMaxMPH,WindSpeedAvgMPH,GustSpeedMaxMPH,PrecipitationSumIn
2013-1-1,24.0,21.6,18.0,18.0,13.6,11.0,82,71,60,30.13,30.01,0,-999,0,0.00
2013-1-2,25.0,21.2,17.0,21.0,15.1,11.0,85,77,68,30.14,30.03,0,-999,0,0.00
2013-1-3,28.0,25.1,20.0,23.0,20.1,16.0,92,82,76,30.09,29.98,0,-999,0,0.00
2013-1-4,33.0,28.5,26.0,25.0,22.3,20.0,86,77,69,30.10,29.89,0,-999,0,0.00
2013-1-5,33.0,27.5,18.0,31.0,24.4,16.0,96,88,77,30.22,29.91,0,-999,0,0.00
2013-1-6,34.0,32.6,29.0,33.0,29.9,23.0,96,90,79,30.22,29.81,0,-999,0,0.00
2013-1-7,36.0,31.5,28.0,26.0,24.7,23.0,87,76,58,30.27,30.02,0,-999,0,0.00
2013-1-8,39.0,31.6,27.0,32.0,26.4,23.0,86,81,73,30.16,30.04,0,-999,0,0.00
2013-1-9,45.0,37.3,29.0,34.0,29.3,25.0,89,73,48,30.37,29.88,0,-999,0,0.00
2013-1-10,37.0,32.1,26.0,32.0,27.7,23.0,92,84,75,30.53,30.14,0,-999,0,0.00
2013-1-11,50.0,41.3,33.0,49.0,40.1,31.0,98,96,91,30.16,29.66,0,-999,0,0.00
2013-1-12,56.0,48.0,41.0,49.0,41.5,31.0,96,80,57,29.89,29.70,0,-999,0,0.00
2013-1-13,40.0,34.6,27.0,35.0,32.7,23.0,97,93,73,29.98,29.75,0,-999,0,0.00
2013-1-14,27.0,21.5,16.0,25.0,15.6,11.0,93,78,65,30.38,29.96,0,-999,0,0.00
2013-1-15,27.0,19.8,13.0,19.0,15.4,11.0,92,83,69,30.40,30.13,0,-999,0,0.00
2013-1-16,34.0,25.3,17.0,29.0,21.0,14.0,91,84,69,30.13,29.68,0,-999,0,0.00
2013-1-17,31.0,21.7,13.0,28.0,15.9,5.0,90,78,58,30.30,29.88,0,-999,0,0.00
2013-1-18,35.0,20.5,7.0,27.0,14.6,4.0,88,78,67,30.40,29.82,0,-999,0,0.00
2013-1-19,40.0,36.8,32.0,36.0,30.8,24.0,94,79,70,29.82,29.42,0,-999,0,0.00
2013-1-20,33.0,18.5,11.0,32.0,11.8,4.0,95,75,63,30.15,29.43,0,-999,0,0.00
2013-1-21,13.0,9.7,2.0,10.0,2.8,-5.0,86,73,56,30.12,29.93,0,-999,0,0.00
2013-1-22,7.0,2.6,-1.0,-1.0,-5.6,-8.0,77,68,54,30.27,30.07,0,-999,0,0.00
2013-1-23,15.0,8.5,2.0,11.0,4.3,-4.0,90,83,76,30.27,30.07,0,-999,0,0.00
2013-1-24,15.0,9.2,3.0,9.0,2.9,-1.0,91,75,57,30.61,30.14,0,-999,0,0.00
2013-1-25,20.0,15.4,11.0,19.0,11.2,4.0,100,83,72,30.50,29.99,0,-999,0,0.00
2013-1-26,28.0,20.7,16.0,17.0,15.6,13.0,92,81,60,30.41,30.02,0,-999,0,0.00
2013-1-27,28.0,22.9,15.0,25.0,17.3,12.0,94,79,65,30.43,30.12,0,-999,0,0.00
2013-1-28,38.0,33.8,26.0,37.0,32.4,25.0,97,95,92,30.12,29.78,0,-999,0,0.00
2013-1-29,53.0,41.4,33.0,52.0,40.4,31.0,99,97,93,29.98,29.35,0,-999,0,0.00
2013-1-30,53.0,40.0,31.0,52.0,38.8,26.0,99,96,82,29.36,29.01,0,-999,0,0.00
2013-1-31,30.0,20.6,17.0,25.0,12.4,7.0,81,70,58,29.83,29.14,16,-308,0,0.00